sensor_id;sensor_type;location;lat;lon;timestamp;P1;durP1;ratioP1;P2;durP2;ratioP2
59302;SDS011;45074;52.764;6.896;2022-07-22T00:01:00;6.22;;;2.30;;
59302;SDS011;45074;52.764;6.896;2022-07-22T00:03:26;7.68;;;2.70;;
59302;SDS011;45074;52.764;6.896;2022-07-22T00:05:51;5.38;;;2.30;;
59302;SDS011;45074;52.764;6.896;2022-07-22T00:08:17;6.38;;;2.80;;
59302;SDS011;45074;52.764;6.896;2022-07-22T00:10:43;5.35;;;2.38;;
59302;SDS011;45074;52.764;6.896;2022-07-22T00:13:09;7.68;;;2.50;;
59302;SDS011;45074;52.764;6.896;2022-07-22T00:15:35;7.85;;;2.60;;
59302;SDS011;45074;52.764;6.896;2022-07-22T00:18:01;6.95;;;2.90;;
59302;SDS011;45074;52.764;6.896;2022-07-22T00:20:27;7.28;;;3.03;;
59302;SDS011;45074;52.764;6.896;2022-07-22T00:22:53;6.32;;;3.00;;
59302;SDS011;45074;52.764;6.896;2022-07-22T00:25:18;7.22;;;3.05;;
59302;SDS011;45074;52.764;6.896;2022-07-22T00:27:44;8.32;;;3.03;;
59302;SDS011;45074;52.764;6.896;2022-07-22T00:30:10;9.32;;;3.15;;
59302;SDS011;45074;52.764;6.896;2022-07-22T00:32:35;8.13;;;3.05;;
59302;SDS011;45074;52.764;6.896;2022-07-22T00:35:02;6.63;;;2.63;;
59302;SDS011;45074;52.764;6.896;2022-07-22T00:37:28;9.38;;;2.85;;
59302;SDS011;45074;52.764;6.896;2022-07-22T00:39:53;9.25;;;2.97;;
59302;SDS011;45074;52.764;6.896;2022-07-22T00:42:19;8.30;;;2.63;;
59302;SDS011;45074;52.764;6.896;2022-07-22T00:44:44;7.00;;;2.72;;
59302;SDS011;45074;52.764;6.896;2022-07-22T00:47:11;8.02;;;3.03;;
59302;SDS011;45074;52.764;6.896;2022-07-22T00:49:36;7.88;;;2.78;;
59302;SDS011;45074;52.764;6.896;2022-07-22T00:52:02;7.00;;;2.88;;
59302;SDS011;45074;52.764;6.896;2022-07-22T00:54:29;7.35;;;3.03;;
59302;SDS011;45074;52.764;6.896;2022-07-22T00:56:55;10.32;;;2.80;;
59302;SDS011;45074;52.764;6.896;2022-07-22T00:59:21;10.73;;;3.20;;
59302;SDS011;45074;52.764;6.896;2022-07-22T01:01:47;8.20;;;3.30;;
59302;SDS011;45074;52.764;6.896;2022-07-22T01:04:12;9.43;;;3.20;;
59302;SDS011;45074;52.764;6.896;2022-07-22T01:06:38;8.82;;;3.13;;
59302;SDS011;45074;52.764;6.896;2022-07-22T01:09:04;9.30;;;3.33;;
59302;SDS011;45074;52.764;6.896;2022-07-22T01:11:30;10.60;;;3.65;;
59302;SDS011;45074;52.764;6.896;2022-07-22T01:13:56;10.18;;;3.65;;
59302;SDS011;45074;52.764;6.896;2022-07-22T01:16:22;10.30;;;3.60;;
59302;SDS011;45074;52.764;6.896;2022-07-22T01:18:48;8.48;;;3.47;;
59302;SDS011;45074;52.764;6.896;2022-07-22T01:21:14;10.32;;;3.78;;
59302;SDS011;45074;52.764;6.896;2022-07-22T01:23:41;12.32;;;4.13;;
59302;SDS011;45074;52.764;6.896;2022-07-22T01:26:07;7.57;;;3.67;;
59302;SDS011;45074;52.764;6.896;2022-07-22T01:28:33;10.10;;;4.05;;
59302;SDS011;45074;52.764;6.896;2022-07-22T01:30:59;14.38;;;4.35;;
59302;SDS011;45074;52.764;6.896;2022-07-22T01:33:25;9.82;;;4.18;;
59302;SDS011;45074;52.764;6.896;2022-07-22T01:35:51;11.30;;;3.90;;
59302;SDS011;45074;52.764;6.896;2022-07-22T01:38:17;12.18;;;3.80;;
59302;SDS011;45074;52.764;6.896;2022-07-22T01:40:43;12.35;;;4.85;;
59302;SDS011;45074;52.764;6.896;2022-07-22T01:43:09;11.65;;;4.05;;
59302;SDS011;45074;52.764;6.896;2022-07-22T01:45:36;13.63;;;4.43;;
59302;SDS011;45074;52.764;6.896;2022-07-22T01:48:02;13.80;;;4.00;;
59302;SDS011;45074;52.764;6.896;2022-07-22T01:50:28;9.75;;;3.92;;
59302;SDS011;45074;52.764;6.896;2022-07-22T01:52:54;11.90;;;4.22;;
59302;SDS011;45074;52.764;6.896;2022-07-22T01:55:20;12.65;;;4.43;;
59302;SDS011;45074;52.764;6.896;2022-07-22T01:57:46;10.68;;;4.13;;
59302;SDS011;45074;52.764;6.896;2022-07-22T02:00:12;11.10;;;4.20;;
59302;SDS011;45074;52.764;6.896;2022-07-22T02:02:38;8.73;;;3.75;;
59302;SDS011;45074;52.764;6.896;2022-07-22T02:05:04;10.85;;;4.00;;
59302;SDS011;45074;52.764;6.896;2022-07-22T02:07:31;9.15;;;3.90;;
59302;SDS011;45074;52.764;6.896;2022-07-22T02:09:57;11.50;;;4.13;;
59302;SDS011;45074;52.764;6.896;2022-07-22T02:12:22;10.23;;;3.72;;
59302;SDS011;45074;52.764;6.896;2022-07-22T02:14:48;10.95;;;3.75;;
59302;SDS011;45074;52.764;6.896;2022-07-22T02:17:15;11.35;;;4.28;;
59302;SDS011;45074;52.764;6.896;2022-07-22T02:19:40;8.80;;;3.97;;
59302;SDS011;45074;52.764;6.896;2022-07-22T02:22:06;11.55;;;3.70;;
59302;SDS011;45074;52.764;6.896;2022-07-22T02:24:33;12.00;;;3.85;;
59302;SDS011;45074;52.764;6.896;2022-07-22T02:26:59;12.65;;;3.80;;
59302;SDS011;45074;52.764;6.896;2022-07-22T02:29:25;9.45;;;4.18;;
59302;SDS011;45074;52.764;6.896;2022-07-22T02:31:51;12.02;;;3.95;;
59302;SDS011;45074;52.764;6.896;2022-07-22T02:34:17;11.48;;;3.20;;
59302;SDS011;45074;52.764;6.896;2022-07-22T02:36:43;11.73;;;3.63;;
59302;SDS011;45074;52.764;6.896;2022-07-22T02:39:08;11.57;;;3.58;;
59302;SDS011;45074;52.764;6.896;2022-07-22T02:41:34;15.63;;;3.38;;
59302;SDS011;45074;52.764;6.896;2022-07-22T02:44:00;9.70;;;3.42;;
59302;SDS011;45074;52.764;6.896;2022-07-22T02:46:25;9.38;;;3.28;;
59302;SDS011;45074;52.764;6.896;2022-07-22T02:48:53;9.90;;;3.53;;
59302;SDS011;45074;52.764;6.896;2022-07-22T02:51:19;11.73;;;3.92;;
59302;SDS011;45074;52.764;6.896;2022-07-22T02:53:45;16.30;;;3.72;;
59302;SDS011;45074;52.764;6.896;2022-07-22T02:56:11;11.15;;;3.50;;
59302;SDS011;45074;52.764;6.896;2022-07-22T02:58:37;9.80;;;3.50;;
59302;SDS011;45074;52.764;6.896;2022-07-22T03:01:02;10.57;;;3.25;;
59302;SDS011;45074;52.764;6.896;2022-07-22T03:03:28;10.50;;;3.55;;
59302;SDS011;45074;52.764;6.896;2022-07-22T03:05:54;12.05;;;4.03;;
59302;SDS011;45074;52.764;6.896;2022-07-22T03:08:19;11.25;;;3.75;;
59302;SDS011;45074;52.764;6.896;2022-07-22T03:10:45;8.38;;;3.65;;
59302;SDS011;45074;52.764;6.896;2022-07-22T03:13:11;12.77;;;3.63;;
59302;SDS011;45074;52.764;6.896;2022-07-22T03:15:36;12.27;;;3.50;;
59302;SDS011;45074;52.764;6.896;2022-07-22T03:18:02;11.93;;;3.63;;
59302;SDS011;45074;52.764;6.896;2022-07-22T03:20:28;12.00;;;3.47;;
59302;SDS011;45074;52.764;6.896;2022-07-22T03:22:53;9.38;;;3.42;;
59302;SDS011;45074;52.764;6.896;2022-07-22T03:25:19;10.90;;;3.38;;
59302;SDS011;45074;52.764;6.896;2022-07-22T03:27:45;10.75;;;3.38;;
59302;SDS011;45074;52.764;6.896;2022-07-22T03:30:11;10.75;;;3.42;;
59302;SDS011;45074;52.764;6.896;2022-07-22T03:32:37;9.13;;;3.20;;
59302;SDS011;45074;52.764;6.896;2022-07-22T03:35:03;8.77;;;3.30;;
59302;SDS011;45074;52.764;6.896;2022-07-22T03:37:29;9.35;;;3.45;;
59302;SDS011;45074;52.764;6.896;2022-07-22T03:39:55;8.35;;;3.20;;
59302;SDS011;45074;52.764;6.896;2022-07-22T03:42:20;9.18;;;3.20;;
59302;SDS011;45074;52.764;6.896;2022-07-22T03:44:46;10.65;;;3.30;;
59302;SDS011;45074;52.764;6.896;2022-07-22T03:47:12;8.32;;;3.15;;
59302;SDS011;45074;52.764;6.896;2022-07-22T03:49:42;8.65;;;3.47;;
59302;SDS011;45074;52.764;6.896;2022-07-22T03:52:08;11.07;;;3.10;;
59302;SDS011;45074;52.764;6.896;2022-07-22T03:54:34;9.98;;;3.15;;
59302;SDS011;45074;52.764;6.896;2022-07-22T03:57:00;10.00;;;3.60;;
59302;SDS011;45074;52.764;6.896;2022-07-22T03:59:26;7.43;;;3.00;;
59302;SDS011;45074;52.764;6.896;2022-07-22T04:01:51;9.85;;;2.90;;
59302;SDS011;45074;52.764;6.896;2022-07-22T04:04:18;7.65;;;3.00;;
59302;SDS011;45074;52.764;6.896;2022-07-22T04:06:43;7.07;;;3.08;;
59302;SDS011;45074;52.764;6.896;2022-07-22T04:09:10;7.78;;;2.92;;
59302;SDS011;45074;52.764;6.896;2022-07-22T04:11:35;9.73;;;3.03;;
59302;SDS011;45074;52.764;6.896;2022-07-22T04:14:01;9.57;;;2.63;;
59302;SDS011;45074;52.764;6.896;2022-07-22T04:16:27;8.50;;;2.78;;
59302;SDS011;45074;52.764;6.896;2022-07-22T04:18:52;8.20;;;2.63;;
59302;SDS011;45074;52.764;6.896;2022-07-22T04:21:18;9.82;;;2.80;;
59302;SDS011;45074;52.764;6.896;2022-07-22T04:23:44;10.07;;;2.83;;
59302;SDS011;45074;52.764;6.896;2022-07-22T04:26:09;7.50;;;2.45;;
59302;SDS011;45074;52.764;6.896;2022-07-22T04:28:35;7.63;;;2.40;;
59302;SDS011;45074;52.764;6.896;2022-07-22T04:31:02;7.20;;;2.60;;
59302;SDS011;45074;52.764;6.896;2022-07-22T04:33:28;7.72;;;2.83;;
59302;SDS011;45074;52.764;6.896;2022-07-22T04:35:55;11.93;;;2.85;;
59302;SDS011;45074;52.764;6.896;2022-07-22T04:38:20;8.18;;;2.72;;
59302;SDS011;45074;52.764;6.896;2022-07-22T04:40:46;8.88;;;2.92;;
59302;SDS011;45074;52.764;6.896;2022-07-22T04:43:11;7.60;;;2.65;;
59302;SDS011;45074;52.764;6.896;2022-07-22T04:45:37;9.57;;;2.60;;
59302;SDS011;45074;52.764;6.896;2022-07-22T04:48:03;9.23;;;2.72;;
59302;SDS011;45074;52.764;6.896;2022-07-22T04:50:29;7.88;;;2.78;;
59302;SDS011;45074;52.764;6.896;2022-07-22T04:52:54;7.38;;;2.78;;
59302;SDS011;45074;52.764;6.896;2022-07-22T04:55:20;8.18;;;2.83;;
59302;SDS011;45074;52.764;6.896;2022-07-22T04:57:46;11.02;;;2.67;;
59302;SDS011;45074;52.764;6.896;2022-07-22T05:00:12;6.13;;;2.50;;
59302;SDS011;45074;52.764;6.896;2022-07-22T05:02:38;7.32;;;2.63;;
59302;SDS011;45074;52.764;6.896;2022-07-22T05:05:03;8.35;;;2.40;;
59302;SDS011;45074;52.764;6.896;2022-07-22T05:07:29;13.57;;;3.05;;
59302;SDS011;45074;52.764;6.896;2022-07-22T05:09:55;7.18;;;2.70;;
59302;SDS011;45074;52.764;6.896;2022-07-22T05:12:21;9.43;;;2.85;;
59302;SDS011;45074;52.764;6.896;2022-07-22T05:14:47;11.48;;;2.55;;
59302;SDS011;45074;52.764;6.896;2022-07-22T05:17:12;8.85;;;2.65;;
59302;SDS011;45074;52.764;6.896;2022-07-22T05:19:38;7.75;;;2.50;;
59302;SDS011;45074;52.764;6.896;2022-07-22T05:22:05;8.15;;;2.78;;
59302;SDS011;45074;52.764;6.896;2022-07-22T05:24:31;6.25;;;2.30;;
59302;SDS011;45074;52.764;6.896;2022-07-22T05:26:57;8.15;;;2.50;;
59302;SDS011;45074;52.764;6.896;2022-07-22T05:29:23;7.45;;;2.50;;
59302;SDS011;45074;52.764;6.896;2022-07-22T05:31:48;7.05;;;2.60;;
59302;SDS011;45074;52.764;6.896;2022-07-22T05:34:14;9.32;;;2.63;;
59302;SDS011;45074;52.764;6.896;2022-07-22T05:36:40;13.32;;;3.03;;
59302;SDS011;45074;52.764;6.896;2022-07-22T05:39:05;7.72;;;2.70;;
59302;SDS011;45074;52.764;6.896;2022-07-22T05:41:31;8.70;;;2.42;;
59302;SDS011;45074;52.764;6.896;2022-07-22T05:43:57;7.47;;;2.60;;
59302;SDS011;45074;52.764;6.896;2022-07-22T05:46:23;8.48;;;2.40;;
59302;SDS011;45074;52.764;6.896;2022-07-22T05:48:48;8.48;;;2.70;;
59302;SDS011;45074;52.764;6.896;2022-07-22T05:51:15;7.75;;;2.60;;
59302;SDS011;45074;52.764;6.896;2022-07-22T05:53:41;8.48;;;2.70;;
59302;SDS011;45074;52.764;6.896;2022-07-22T05:56:08;10.38;;;2.95;;
59302;SDS011;45074;52.764;6.896;2022-07-22T05:58:36;7.07;;;2.72;;
59302;SDS011;45074;52.764;6.896;2022-07-22T06:01:03;7.63;;;2.67;;
59302;SDS011;45074;52.764;6.896;2022-07-22T06:03:29;10.93;;;2.70;;
59302;SDS011;45074;52.764;6.896;2022-07-22T06:05:54;8.02;;;2.53;;
59302;SDS011;45074;52.764;6.896;2022-07-22T06:08:20;8.68;;;2.60;;
59302;SDS011;45074;52.764;6.896;2022-07-22T06:10:46;5.93;;;2.38;;
59302;SDS011;45074;52.764;6.896;2022-07-22T06:13:12;8.85;;;2.60;;
59302;SDS011;45074;52.764;6.896;2022-07-22T06:15:38;8.23;;;2.20;;
59302;SDS011;45074;52.764;6.896;2022-07-22T06:18:04;9.07;;;2.30;;
59302;SDS011;45074;52.764;6.896;2022-07-22T06:20:31;6.32;;;2.38;;
59302;SDS011;45074;52.764;6.896;2022-07-22T06:22:56;6.78;;;2.40;;
59302;SDS011;45074;52.764;6.896;2022-07-22T06:25:22;8.05;;;2.40;;
59302;SDS011;45074;52.764;6.896;2022-07-22T06:27:48;5.93;;;2.38;;
59302;SDS011;45074;52.764;6.896;2022-07-22T06:30:13;5.45;;;2.05;;
59302;SDS011;45074;52.764;6.896;2022-07-22T06:32:40;6.35;;;2.38;;
59302;SDS011;45074;52.764;6.896;2022-07-22T06:35:06;6.63;;;2.20;;
59302;SDS011;45074;52.764;6.896;2022-07-22T06:37:32;9.27;;;2.42;;
59302;SDS011;45074;52.764;6.896;2022-07-22T06:39:58;6.30;;;2.30;;
59302;SDS011;45074;52.764;6.896;2022-07-22T06:42:23;6.55;;;2.15;;
59302;SDS011;45074;52.764;6.896;2022-07-22T06:44:50;5.47;;;2.15;;
59302;SDS011;45074;52.764;6.896;2022-07-22T06:47:16;6.65;;;2.30;;
59302;SDS011;45074;52.764;6.896;2022-07-22T06:49:42;6.65;;;2.03;;
59302;SDS011;45074;52.764;6.896;2022-07-22T06:52:08;4.45;;;2.20;;
59302;SDS011;45074;52.764;6.896;2022-07-22T06:54:34;7.38;;;1.90;;
59302;SDS011;45074;52.764;6.896;2022-07-22T06:56:59;6.63;;;2.13;;
59302;SDS011;45074;52.764;6.896;2022-07-22T06:59:25;5.57;;;1.90;;
59302;SDS011;45074;52.764;6.896;2022-07-22T07:01:51;6.93;;;2.00;;
59302;SDS011;45074;52.764;6.896;2022-07-22T07:04:17;7.57;;;1.92;;
59302;SDS011;45074;52.764;6.896;2022-07-22T07:06:44;6.70;;;2.17;;
59302;SDS011;45074;52.764;6.896;2022-07-22T07:09:09;7.35;;;2.20;;
59302;SDS011;45074;52.764;6.896;2022-07-22T07:11:36;6.22;;;2.10;;
59302;SDS011;45074;52.764;6.896;2022-07-22T07:14:01;5.53;;;2.00;;
59302;SDS011;45074;52.764;6.896;2022-07-22T07:16:27;4.55;;;2.00;;
59302;SDS011;45074;52.764;6.896;2022-07-22T07:18:53;6.05;;;1.90;;
59302;SDS011;45074;52.764;6.896;2022-07-22T07:21:19;5.75;;;2.03;;
59302;SDS011;45074;52.764;6.896;2022-07-22T07:23:45;5.28;;;1.88;;
59302;SDS011;45074;52.764;6.896;2022-07-22T07:26:10;7.90;;;2.17;;
59302;SDS011;45074;52.764;6.896;2022-07-22T07:28:36;5.95;;;2.22;;
59302;SDS011;45074;52.764;6.896;2022-07-22T07:31:02;6.18;;;1.90;;
59302;SDS011;45074;52.764;6.896;2022-07-22T07:33:28;5.35;;;2.30;;
59302;SDS011;45074;52.764;6.896;2022-07-22T07:35:54;7.43;;;2.00;;
59302;SDS011;45074;52.764;6.896;2022-07-22T07:38:20;8.18;;;1.83;;
59302;SDS011;45074;52.764;6.896;2022-07-22T07:40:46;6.90;;;1.85;;
59302;SDS011;45074;52.764;6.896;2022-07-22T07:43:11;6.15;;;2.13;;
59302;SDS011;45074;52.764;6.896;2022-07-22T07:45:37;6.88;;;1.90;;
59302;SDS011;45074;52.764;6.896;2022-07-22T07:48:03;6.55;;;2.00;;
59302;SDS011;45074;52.764;6.896;2022-07-22T07:50:30;5.07;;;1.80;;
59302;SDS011;45074;52.764;6.896;2022-07-22T07:52:56;5.78;;;1.77;;
59302;SDS011;45074;52.764;6.896;2022-07-22T07:55:22;6.78;;;2.15;;
59302;SDS011;45074;52.764;6.896;2022-07-22T07:57:48;6.82;;;1.90;;
59302;SDS011;45074;52.764;6.896;2022-07-22T08:00:15;6.07;;;1.88;;
59302;SDS011;45074;52.764;6.896;2022-07-22T08:02:42;6.68;;;1.75;;
59302;SDS011;45074;52.764;6.896;2022-07-22T08:05:08;5.60;;;1.60;;
59302;SDS011;45074;52.764;6.896;2022-07-22T08:07:35;5.32;;;1.70;;
59302;SDS011;45074;52.764;6.896;2022-07-22T08:10:02;6.18;;;1.80;;
59302;SDS011;45074;52.764;6.896;2022-07-22T08:12:29;4.82;;;1.50;;
59302;SDS011;45074;52.764;6.896;2022-07-22T08:14:55;5.18;;;1.90;;
59302;SDS011;45074;52.764;6.896;2022-07-22T08:17:21;7.93;;;1.95;;
59302;SDS011;45074;52.764;6.896;2022-07-22T08:19:47;7.97;;;1.90;;
59302;SDS011;45074;52.764;6.896;2022-07-22T08:22:12;7.53;;;2.20;;
59302;SDS011;45074;52.764;6.896;2022-07-22T08:24:38;8.23;;;2.00;;
59302;SDS011;45074;52.764;6.896;2022-07-22T08:27:03;3.42;;;1.80;;
59302;SDS011;45074;52.764;6.896;2022-07-22T08:29:29;5.10;;;1.50;;
59302;SDS011;45074;52.764;6.896;2022-07-22T08:31:55;5.32;;;1.63;;
59302;SDS011;45074;52.764;6.896;2022-07-22T08:34:20;5.65;;;1.50;;
59302;SDS011;45074;52.764;6.896;2022-07-22T08:36:46;7.38;;;1.75;;
59302;SDS011;45074;52.764;6.896;2022-07-22T08:39:12;6.05;;;1.52;;
59302;SDS011;45074;52.764;6.896;2022-07-22T08:41:38;5.10;;;1.65;;
59302;SDS011;45074;52.764;6.896;2022-07-22T08:44:05;4.25;;;1.55;;
59302;SDS011;45074;52.764;6.896;2022-07-22T08:46:32;7.10;;;1.60;;
59302;SDS011;45074;52.764;6.896;2022-07-22T08:48:58;6.50;;;1.58;;
59302;SDS011;45074;52.764;6.896;2022-07-22T08:51:25;4.43;;;1.48;;
59302;SDS011;45074;52.764;6.896;2022-07-22T08:53:51;4.43;;;1.58;;
59302;SDS011;45074;52.764;6.896;2022-07-22T08:56:17;3.65;;;1.60;;
59302;SDS011;45074;52.764;6.896;2022-07-22T08:58:43;6.90;;;1.40;;
59302;SDS011;45074;52.764;6.896;2022-07-22T09:01:10;5.03;;;1.60;;
59302;SDS011;45074;52.764;6.896;2022-07-22T09:03:58;5.70;;;1.75;;
59302;SDS011;45074;52.764;6.896;2022-07-22T09:06:24;3.97;;;1.67;;
59302;SDS011;45074;52.764;6.896;2022-07-22T09:08:55;5.30;;;1.70;;
59302;SDS011;45074;52.764;6.896;2022-07-22T09:11:23;5.28;;;1.75;;
59302;SDS011;45074;52.764;6.896;2022-07-22T09:13:51;6.78;;;1.80;;
59302;SDS011;45074;52.764;6.896;2022-07-22T09:16:37;5.68;;;1.80;;
59302;SDS011;45074;52.764;6.896;2022-07-22T09:19:07;5.78;;;1.60;;
59302;SDS011;45074;52.764;6.896;2022-07-22T09:21:38;6.68;;;1.52;;
59302;SDS011;45074;52.764;6.896;2022-07-22T09:24:06;4.75;;;1.80;;
59302;SDS011;45074;52.764;6.896;2022-07-22T09:26:35;5.40;;;1.63;;
59302;SDS011;45074;52.764;6.896;2022-07-22T09:29:03;5.63;;;1.70;;
59302;SDS011;45074;52.764;6.896;2022-07-22T09:31:31;4.50;;;1.60;;
59302;SDS011;45074;52.764;6.896;2022-07-22T09:33:58;5.43;;;1.70;;
59302;SDS011;45074;52.764;6.896;2022-07-22T09:36:25;5.88;;;1.83;;
59302;SDS011;45074;52.764;6.896;2022-07-22T09:38:52;6.57;;;1.85;;
59302;SDS011;45074;52.764;6.896;2022-07-22T09:41:18;4.18;;;1.77;;
59302;SDS011;45074;52.764;6.896;2022-07-22T09:43:44;3.35;;;1.55;;
59302;SDS011;45074;52.764;6.896;2022-07-22T09:46:10;5.25;;;1.80;;
59302;SDS011;45074;52.764;6.896;2022-07-22T09:48:36;4.90;;;1.60;;
59302;SDS011;45074;52.764;6.896;2022-07-22T09:51:03;6.53;;;1.73;;
59302;SDS011;45074;52.764;6.896;2022-07-22T09:53:30;5.32;;;1.58;;
59302;SDS011;45074;52.764;6.896;2022-07-22T09:56:00;6.30;;;1.80;;
59302;SDS011;45074;52.764;6.896;2022-07-22T09:58:28;5.60;;;1.70;;
59302;SDS011;45074;52.764;6.896;2022-07-22T10:00:54;4.95;;;1.67;;
59302;SDS011;45074;52.764;6.896;2022-07-22T10:03:28;5.40;;;1.70;;
59302;SDS011;45074;52.764;6.896;2022-07-22T10:05:59;3.65;;;1.80;;
59302;SDS011;45074;52.764;6.896;2022-07-22T10:08:27;5.93;;;1.95;;
59302;SDS011;45074;52.764;6.896;2022-07-22T10:10:58;5.30;;;1.83;;
59302;SDS011;45074;52.764;6.896;2022-07-22T10:13:26;3.63;;;1.80;;
59302;SDS011;45074;52.764;6.896;2022-07-22T10:15:51;5.10;;;1.90;;
59302;SDS011;45074;52.764;6.896;2022-07-22T10:18:18;5.88;;;1.70;;
59302;SDS011;45074;52.764;6.896;2022-07-22T10:20:44;5.30;;;1.98;;
59302;SDS011;45074;52.764;6.896;2022-07-22T10:23:11;4.75;;;1.80;;
59302;SDS011;45074;52.764;6.896;2022-07-22T10:25:57;7.65;;;1.80;;
59302;SDS011;45074;52.764;6.896;2022-07-22T10:28:26;5.25;;;1.60;;
59302;SDS011;45074;52.764;6.896;2022-07-22T10:30:53;4.28;;;1.70;;
59302;SDS011;45074;52.764;6.896;2022-07-22T10:33:39;5.45;;;1.70;;
59302;SDS011;45074;52.764;6.896;2022-07-22T10:36:05;5.32;;;1.50;;
59302;SDS011;45074;52.764;6.896;2022-07-22T10:38:33;3.70;;;1.77;;
59302;SDS011;45074;52.764;6.896;2022-07-22T10:41:03;4.53;;;1.40;;
59302;SDS011;45074;52.764;6.896;2022-07-22T10:43:31;5.35;;;1.63;;
59302;SDS011;45074;52.764;6.896;2022-07-22T10:46:11;3.40;;;1.65;;
59302;SDS011;45074;52.764;6.896;2022-07-22T10:51:12;4.40;;;1.80;;
59302;SDS011;45074;52.764;6.896;2022-07-22T10:59:15;6.63;;;1.70;;
59302;SDS011;45074;52.764;6.896;2022-07-22T11:01:49;4.32;;;1.50;;
59302;SDS011;45074;52.764;6.896;2022-07-22T11:04:24;6.80;;;1.50;;
59302;SDS011;45074;52.764;6.896;2022-07-22T11:06:51;4.38;;;1.70;;
59302;SDS011;45074;52.764;6.896;2022-07-22T11:09:20;4.85;;;1.70;;
59302;SDS011;45074;52.764;6.896;2022-07-22T11:11:53;5.57;;;1.40;;
59302;SDS011;45074;52.764;6.896;2022-07-22T11:16:46;3.67;;;1.70;;
59302;SDS011;45074;52.764;6.896;2022-07-22T11:19:19;4.13;;;1.67;;
59302;SDS011;45074;52.764;6.896;2022-07-22T11:21:48;3.92;;;1.48;;
59302;SDS011;45074;52.764;6.896;2022-07-22T11:24:16;4.60;;;1.52;;
59302;SDS011;45074;52.764;6.896;2022-07-22T11:26:44;4.63;;;1.48;;
59302;SDS011;45074;52.764;6.896;2022-07-22T11:31:58;4.25;;;1.40;;
59302;SDS011;45074;52.764;6.896;2022-07-22T11:34:25;3.17;;;1.40;;
59302;SDS011;45074;52.764;6.896;2022-07-22T11:36:51;5.63;;;1.50;;
59302;SDS011;45074;52.764;6.896;2022-07-22T11:39:25;6.95;;;1.77;;
59302;SDS011;45074;52.764;6.896;2022-07-22T11:41:54;4.70;;;1.50;;
59302;SDS011;45074;52.764;6.896;2022-07-22T11:44:21;6.47;;;1.73;;
59302;SDS011;45074;52.764;6.896;2022-07-22T11:46:49;5.30;;;1.67;;
59302;SDS011;45074;52.764;6.896;2022-07-22T11:49:16;5.05;;;1.80;;
59302;SDS011;45074;52.764;6.896;2022-07-22T11:51:43;7.20;;;1.98;;
59302;SDS011;45074;52.764;6.896;2022-07-22T11:54:09;4.38;;;1.60;;
59302;SDS011;45074;52.764;6.896;2022-07-22T11:56:35;6.40;;;1.70;;
59302;SDS011;45074;52.764;6.896;2022-07-22T11:59:01;4.72;;;1.70;;
59302;SDS011;45074;52.764;6.896;2022-07-22T12:01:31;5.53;;;1.98;;
59302;SDS011;45074;52.764;6.896;2022-07-22T12:04:00;6.82;;;2.00;;
59302;SDS011;45074;52.764;6.896;2022-07-22T12:06:35;7.18;;;1.90;;
59302;SDS011;45074;52.764;6.896;2022-07-22T12:09:07;6.35;;;2.20;;
59302;SDS011;45074;52.764;6.896;2022-07-22T12:11:36;6.45;;;2.00;;
59302;SDS011;45074;52.764;6.896;2022-07-22T12:14:05;5.97;;;1.80;;
59302;SDS011;45074;52.764;6.896;2022-07-22T12:16:35;4.68;;;1.90;;
59302;SDS011;45074;52.764;6.896;2022-07-22T12:19:11;3.60;;;1.40;;
59302;SDS011;45074;52.764;6.896;2022-07-22T12:24:24;8.80;;;1.73;;
59302;SDS011;45074;52.764;6.896;2022-07-22T12:27:01;4.20;;;1.73;;
59302;SDS011;45074;52.764;6.896;2022-07-22T12:32:05;5.45;;;1.88;;
59302;SDS011;45074;52.764;6.896;2022-07-22T12:37:00;5.32;;;1.70;;
59302;SDS011;45074;52.764;6.896;2022-07-22T12:39:35;3.78;;;1.70;;
59302;SDS011;45074;52.764;6.896;2022-07-22T12:42:01;5.70;;;1.50;;
59302;SDS011;45074;52.764;6.896;2022-07-22T12:44:27;5.47;;;1.75;;
59302;SDS011;45074;52.764;6.896;2022-07-22T12:46:53;5.38;;;1.83;;
59302;SDS011;45074;52.764;6.896;2022-07-22T12:49:21;2.95;;;1.33;;
59302;SDS011;45074;52.764;6.896;2022-07-22T12:54:50;3.65;;;1.50;;
59302;SDS011;45074;52.764;6.896;2022-07-22T12:57:16;2.70;;;1.52;;
59302;SDS011;45074;52.764;6.896;2022-07-22T12:59:50;7.30;;;1.50;;
59302;SDS011;45074;52.764;6.896;2022-07-22T13:02:17;4.68;;;1.60;;
59302;SDS011;45074;52.764;6.896;2022-07-22T13:04:43;4.03;;;1.48;;
59302;SDS011;45074;52.764;6.896;2022-07-22T13:07:08;2.85;;;1.40;;
59302;SDS011;45074;52.764;6.896;2022-07-22T13:09:34;5.07;;;1.40;;
59302;SDS011;45074;52.764;6.896;2022-07-22T13:12:00;3.95;;;1.60;;
59302;SDS011;45074;52.764;6.896;2022-07-22T13:14:25;5.78;;;1.63;;
59302;SDS011;45074;52.764;6.896;2022-07-22T13:16:51;3.53;;;1.52;;
59302;SDS011;45074;52.764;6.896;2022-07-22T13:19:17;5.85;;;1.60;;
59302;SDS011;45074;52.764;6.896;2022-07-22T13:21:42;3.80;;;1.48;;
59302;SDS011;45074;52.764;6.896;2022-07-22T13:24:09;6.03;;;1.70;;
59302;SDS011;45074;52.764;6.896;2022-07-22T13:26:36;5.60;;;1.65;;
59302;SDS011;45074;52.764;6.896;2022-07-22T13:29:02;4.32;;;1.55;;
59302;SDS011;45074;52.764;6.896;2022-07-22T13:31:27;3.50;;;1.50;;
59302;SDS011;45074;52.764;6.896;2022-07-22T13:33:53;3.08;;;1.50;;
59302;SDS011;45074;52.764;6.896;2022-07-22T13:36:19;3.45;;;1.40;;
59302;SDS011;45074;52.764;6.896;2022-07-22T13:38:47;5.85;;;1.67;;
59302;SDS011;45074;52.764;6.896;2022-07-22T13:41:14;5.30;;;1.70;;
59302;SDS011;45074;52.764;6.896;2022-07-22T13:43:43;4.55;;;1.80;;
59302;SDS011;45074;52.764;6.896;2022-07-22T13:46:10;4.72;;;1.60;;
59302;SDS011;45074;52.764;6.896;2022-07-22T13:48:36;4.18;;;1.73;;
59302;SDS011;45074;52.764;6.896;2022-07-22T13:51:01;5.00;;;1.70;;
59302;SDS011;45074;52.764;6.896;2022-07-22T13:53:29;4.78;;;1.45;;
59302;SDS011;45074;52.764;6.896;2022-07-22T13:55:55;4.13;;;1.65;;
59302;SDS011;45074;52.764;6.896;2022-07-22T13:58:21;3.95;;;1.50;;
59302;SDS011;45074;52.764;6.896;2022-07-22T14:00:47;4.05;;;1.75;;
59302;SDS011;45074;52.764;6.896;2022-07-22T14:03:13;6.22;;;1.80;;
59302;SDS011;45074;52.764;6.896;2022-07-22T14:05:39;5.13;;;1.60;;
59302;SDS011;45074;52.764;6.896;2022-07-22T14:08:05;3.08;;;1.58;;
59302;SDS011;45074;52.764;6.896;2022-07-22T14:10:30;5.05;;;1.88;;
59302;SDS011;45074;52.764;6.896;2022-07-22T14:12:56;3.63;;;1.42;;
59302;SDS011;45074;52.764;6.896;2022-07-22T14:15:21;4.15;;;1.50;;
59302;SDS011;45074;52.764;6.896;2022-07-22T14:17:47;4.70;;;1.80;;
59302;SDS011;45074;52.764;6.896;2022-07-22T14:20:13;5.60;;;1.80;;
59302;SDS011;45074;52.764;6.896;2022-07-22T14:22:39;4.47;;;1.95;;
59302;SDS011;45074;52.764;6.896;2022-07-22T14:25:04;4.43;;;1.52;;
59302;SDS011;45074;52.764;6.896;2022-07-22T14:27:30;2.92;;;1.40;;
59302;SDS011;45074;52.764;6.896;2022-07-22T14:29:56;3.25;;;1.73;;
59302;SDS011;45074;52.764;6.896;2022-07-22T14:32:22;4.90;;;1.58;;
59302;SDS011;45074;52.764;6.896;2022-07-22T14:34:48;4.15;;;1.60;;
59302;SDS011;45074;52.764;6.896;2022-07-22T14:37:13;4.05;;;1.80;;
59302;SDS011;45074;52.764;6.896;2022-07-22T14:39:39;5.20;;;1.63;;
59302;SDS011;45074;52.764;6.896;2022-07-22T14:42:05;3.65;;;1.60;;
59302;SDS011;45074;52.764;6.896;2022-07-22T14:44:31;4.68;;;1.50;;
59302;SDS011;45074;52.764;6.896;2022-07-22T14:46:57;5.47;;;1.67;;
59302;SDS011;45074;52.764;6.896;2022-07-22T14:49:22;3.72;;;1.60;;
59302;SDS011;45074;52.764;6.896;2022-07-22T14:51:48;5.55;;;1.90;;
59302;SDS011;45074;52.764;6.896;2022-07-22T14:54:14;4.43;;;1.60;;
59302;SDS011;45074;52.764;6.896;2022-07-22T14:56:40;3.65;;;1.70;;
59302;SDS011;45074;52.764;6.896;2022-07-22T14:59:06;8.02;;;1.80;;
59302;SDS011;45074;52.764;6.896;2022-07-22T15:01:32;4.47;;;1.65;;
59302;SDS011;45074;52.764;6.896;2022-07-22T15:03:58;4.93;;;2.00;;
59302;SDS011;45074;52.764;6.896;2022-07-22T15:06:24;5.03;;;1.70;;